Time;durP1;ratioP1;P1;durP2;ratioP2;P2;SDS_P1;SDS_P2;PMS_P1;PMS_P2;Temp;Humidity;BMP_temperature;BMP_pressure;BME280_temperature;BME280_humidity;BME280_pressure;Samples;Min_cycle;Max_cycle;Signal;HPM_P1;HPM_P2
2023/11/28 00:04:23;;;;;;;3.17;1.02;;;16.60;96.50;;;;;;10467185;28;20060;-23
2023/11/28 00:09:25;;;;;;;1.63;0.73;;;16.30;97.00;;;;;;10471250;28;20408;-23
2023/11/28 00:14:28;;;;;;;1.33;0.80;;;16.80;95.20;;;;;;10471760;28;20052;-22
2023/11/28 00:19:30;;;;;;;2.17;1.10;;;16.70;93.50;;;;;;10468832;28;20165;-23
2023/11/28 00:24:32;;;;;;;3.42;1.10;;;16.70;95.80;;;;;;10468485;28;20060;-23
2023/11/28 00:29:36;;;;;;;1.33;0.83;;;16.70;95.70;;;;;;10482549;28;20045;-22
2023/11/28 00:34:37;;;;;;;0.93;0.60;;;17.00;95.10;;;;;;10481849;28;20111;-22
2023/11/28 00:39:40;;;;;;;1.40;0.63;;;17.00;94.80;;;;;;10481030;28;20115;-22
2023/11/28 00:44:43;;;;;;;4.45;1.08;;;16.90;94.80;;;;;;10487495;28;20504;-23
2023/11/28 00:49:45;;;;;;;0.95;0.70;;;16.60;95.70;;;;;;10479652;28;20044;-23
2023/11/28 00:54:47;;;;;;;3.50;0.77;;;16.90;94.60;;;;;;10473383;28;20063;-23
2023/11/28 00:59:51;;;;;;;1.50;0.90;;;17.00;94.80;;;;;;10477639;28;20045;-22
2023/11/28 01:04:53;;;;;;;2.00;1.10;;;17.10;94.60;;;;;;10476119;28;20052;-24
2023/11/28 01:09:55;;;;;;;2.10;0.80;;;16.90;94.80;;;;;;10476487;28;20074;-24
2023/11/28 01:14:58;;;;;;;1.63;0.80;;;17.00;94.40;;;;;;10480904;28;20056;-22
2023/11/28 01:20:00;;;;;;;1.35;0.88;;;16.60;95.10;;;;;;10487610;28;20534;-23
2023/11/28 01:25:03;;;;;;;3.67;1.17;;;16.70;94.80;;;;;;10486764;28;20052;-23
2023/11/28 01:30:08;;;;;;;3.53;0.90;;;16.20;95.80;;;;;;10479039;28;20098;-22
2023/11/28 01:35:09;;;;;;;1.27;1.17;;;16.60;95.10;;;;;;10484566;28;20059;-22
2023/11/28 01:40:12;;;;;;;1.37;0.97;;;16.00;95.20;;;;;;10481912;28;20083;-23
2023/11/28 01:45:16;;;;;;;1.00;0.90;;;16.00;95.70;;;;;;10471615;28;20612;-23
2023/11/28 01:50:18;;;;;;;3.35;1.08;;;16.40;94.70;;;;;;10473261;28;20372;-24
2023/11/28 01:55:20;;;;;;;1.08;0.75;;;15.80;97.30;;;;;;10468498;28;20060;-23
2023/11/28 02:00:23;;;;;;;1.40;0.75;;;15.90;95.50;;;;;;10478572;28;20133;-22
2023/11/28 02:05:25;;;;;;;1.58;0.90;;;16.10;96.10;;;;;;10483889;28;20218;-22
2023/11/28 02:10:27;;;;;;;1.08;0.68;;;16.00;96.40;;;;;;10470933;28;20044;-23
2023/11/28 02:15:42;;;;;;;1.20;1.10;;;16.70;94.60;;;;;;10476660;28;20122;-23
2023/11/28 02:20:44;;;;;;;0.88;0.70;;;15.80;95.70;;;;;;10479466;28;20049;-23
2023/11/28 02:25:47;;;;;;;0.90;0.67;;;16.60;94.80;;;;;;10479365;28;20306;-23
2023/11/28 02:30:51;;;;;;;1.30;0.70;;;16.10;95.30;;;;;;10469665;28;20482;-24
2023/11/28 02:35:53;;;;;;;0.63;0.60;;;16.40;93.70;;;;;;10479402;28;20048;-24
2023/11/28 02:40:55;;;;;;;0.60;0.50;;;16.40;94.80;;;;;;10479816;28;20099;-23
2023/11/28 02:45:58;;;;;;;1.20;0.73;;;15.70;96.40;;;;;;10478566;28;20126;-23
2023/11/28 02:51:00;;;;;;;0.52;0.50;;;16.00;92.40;;;;;;10468886;28;20189;-23
2023/11/28 02:56:02;;;;;;;3.10;1.00;;;16.20;92.10;;;;;;10474719;28;20055;-22
2023/11/28 03:01:06;;;;;;;1.63;0.57;;;15.80;92.40;;;;;;10483059;28;20048;-23
2023/11/28 03:06:09;;;;;;;0.90;0.60;;;16.40;94.80;;;;;;10469291;28;20048;-23
2023/11/28 03:11:10;;;;;;;0.98;0.55;;;16.30;94.80;;;;;;10463989;28;20801;-22
2023/11/28 03:16:14;;;;;;;0.90;0.50;;;16.50;94.40;;;;;;10481211;28;20091;-24
2023/11/28 03:21:16;;;;;;;0.50;0.40;;;16.50;94.30;;;;;;10478597;28;20048;-24
2023/11/28 03:26:17;;;;;;;1.20;0.50;;;16.50;94.10;;;;;;10468988;28;20412;-23
2023/11/28 03:31:21;;;;;;;2.17;0.60;;;16.70;93.70;;;;;;10473077;28;20072;-23
2023/11/28 03:36:23;;;;;;;0.50;0.45;;;16.00;89.30;;;;;;10461835;28;20183;-23
2023/11/28 03:41:24;;;;;;;0.50;0.40;;;16.40;93.00;;;;;;10468919;28;20074;-22
2023/11/28 03:46:28;;;;;;;0.30;0.30;;;16.50;94.00;;;;;;10464832;28;20120;-23
2023/11/28 03:51:30;;;;;;;0.52;0.47;;;15.90;92.60;;;;;;10474709;28;20135;-23
2023/11/28 03:56:31;;;;;;;0.87;0.37;;;16.10;94.80;;;;;;10469616;28;20052;-23
2023/11/28 04:15:33;;;;;;;0.30;0.30;;;16.40;93.30;;;;;;10565309;27;20490;-22
2023/11/28 04:20:36;;;;;;;0.40;0.30;;;16.50;93.00;;;;;;10574163;27;20043;-23
2023/11/28 04:25:38;;;;;;;0.38;0.35;;;16.50;93.40;;;;;;10573881;27;20458;-23
2023/11/28 04:30:41;;;;;;;0.30;0.30;;;16.60;93.10;;;;;;10574066;27;20058;-23
2023/11/28 04:35:43;;;;;;;0.52;0.38;;;16.70;93.10;;;;;;10569883;27;20072;-23
2023/11/28 04:40:45;;;;;;;0.57;0.43;;;16.60;93.30;;;;;;10572214;27;20176;-23
2023/11/28 04:45:48;;;;;;;0.63;0.30;;;16.60;93.00;;;;;;10577106;27;20783;-23
2023/11/28 04:50:50;;;;;;;0.75;0.50;;;16.70;92.90;;;;;;10576684;27;20642;-23
2023/11/28 04:55:52;;;;;;;0.30;0.30;;;16.70;93.00;;;;;;10576543;27;20054;-22
2023/11/28 05:00:55;;;;;;;2.38;0.40;;;16.80;92.90;;;;;;10574579;27;20047;-23
2023/11/28 05:05:57;;;;;;;0.30;0.30;;;16.80;92.90;;;;;;10572874;27;20051;-23
2023/11/28 05:11:04;;;;;;;0.40;0.23;;;16.90;92.80;;;;;;10571475;27;20852;-22
2023/11/28 05:16:07;;;;;;;0.38;0.28;;;16.90;92.70;;;;;;10574301;27;20065;-23
2023/11/28 05:21:09;;;;;;;0.55;0.30;;;17.00;92.80;;;;;;10570990;27;20058;-28
2023/11/28 05:26:11;;;;;;;0.30;0.20;;;17.00;92.80;;;;;;10549396;27;20044;-24
2023/11/28 05:31:15;;;;;;;2.75;0.30;;;17.00;92.80;;;;;;10543264;28;20043;-23
2023/11/28 05:36:16;;;;;;;0.20;0.20;;;17.00;92.80;;;;;;10542845;28;20063;-23
2023/11/28 05:41:18;;;;;;;0.20;0.20;;;17.00;92.70;;;;;;10543481;27;20048;-23
2023/11/28 05:46:21;;;;;;;0.40;0.30;;;17.10;92.70;;;;;;10544070;27;20047;-24
2023/11/28 05:51:23;;;;;;;0.20;0.20;;;17.10;92.80;;;;;;10543976;27;20801;-24
2023/11/28 05:56:25;;;;;;;0.40;0.30;;;17.10;92.80;;;;;;10539189;28;20421;-23
2023/11/28 06:01:29;;;;;;;1.10;0.30;;;17.10;92.80;;;;;;10539287;28;20051;-23
2023/11/28 06:06:31;;;;;;;0.85;0.30;;;17.10;92.70;;;;;;10543596;27;20493;-23
2023/11/28 06:11:32;;;;;;;0.37;0.20;;;17.00;92.80;;;;;;10541109;28;20067;-24
2023/11/28 06:16:36;;;;;;;0.10;0.10;;;17.00;92.80;;;;;;10544024;28;20059;-23
2023/11/28 06:21:38;;;;;;;0.20;0.20;;;17.00;92.70;;;;;;10545711;28;20403;-23
2023/11/28 06:26:39;;;;;;;0.50;0.30;;;17.00;92.70;;;;;;10537838;27;20054;-24
2023/11/28 06:31:43;;;;;;;0.20;0.13;;;17.00;92.70;;;;;;10534311;28;20046;-23
2023/11/28 06:36:45;;;;;;;0.22;0.22;;;17.00;92.70;;;;;;10531166;28;20070;-24
2023/11/28 06:41:47;;;;;;;0.30;0.30;;;17.00;92.70;;;;;;10536696;28;20054;-23
2023/11/28 06:46:51;;;;;;;1.85;0.20;;;17.00;92.60;;;;;;10539457;27;20051;-22
2023/11/28 06:51:52;;;;;;;1.55;0.40;;;16.90;92.50;;;;;;10532843;28;20128;-24
2023/11/28 06:56:54;;;;;;;0.80;0.40;;;16.80;92.50;;;;;;10532584;28;20048;-23
2023/11/28 07:01:58;;;;;;;0.60;0.40;;;16.90;92.40;;;;;;10538981;28;20051;-24
2023/11/28 07:06:59;;;;;;;0.80;0.52;;;16.80;92.40;;;;;;10537315;28;20525;-24
2023/11/28 07:12:01;;;;;;;2.00;0.47;;;16.80;92.50;;;;;;10540157;28;20278;-22
2023/11/28 07:17:04;;;;;;;2.13;0.77;;;16.80;92.30;;;;;;10539296;28;20294;-22
2023/11/28 07:22:06;;;;;;;1.13;0.30;;;16.80;92.40;;;;;;10541614;28;20062;-23
2023/11/28 07:27:08;;;;;;;1.33;1.23;;;16.80;92.30;;;;;;10538536;28;20086;-22
2023/11/28 07:32:12;;;;;;;1.80;0.60;;;16.80;92.40;;;;;;10542789;28;20083;-32
2023/11/28 07:37:13;;;;;;;4.18;2.33;;;16.70;92.30;;;;;;10533871;28;20048;-23
2023/11/28 07:42:16;;;;;;;1.67;0.50;;;16.80;92.40;;;;;;10534095;27;20478;-23
2023/11/28 07:47:19;;;;;;;;;;;16.70;92.30;;;;;;10536356;28;20059;-21
2023/11/28 07:52:21;;;;;;;1.90;0.40;;;16.70;92.30;;;;;;10535597;28;19928;-22
2023/11/28 07:57:23;;;;;;;1.52;0.52;;;16.70;92.30;;;;;;10538538;28;20158;-22
2023/11/28 08:02:27;;;;;;;1.08;0.50;;;16.70;92.20;;;;;;10533379;28;20051;-22
2023/11/28 08:07:28;;;;;;;5.40;1.23;;;16.70;92.10;;;;;;10539198;27;20056;-23
2023/11/28 08:12:30;;;;;;;3.07;0.63;;;16.60;92.10;;;;;;10535725;28;20052;-23
2023/11/28 08:17:34;;;;;;;2.17;0.83;;;16.70;92.20;;;;;;10534237;28;20051;-23
2023/11/28 08:22:36;;;;;;;0.85;0.43;;;16.60;92.10;;;;;;10537374;28;20101;-22
2023/11/28 08:27:38;;;;;;;3.60;0.70;;;16.60;92.00;;;;;;10534175;28;20098;-23
2023/11/28 08:32:41;;;;;;;1.90;0.80;;;16.60;92.10;;;;;;10527287;28;20092;-23
2023/11/28 08:37:43;;;;;;;2.30;0.85;;;16.60;92.10;;;;;;10534948;28;20044;-22
2023/11/28 08:42:45;;;;;;;1.07;0.53;;;16.60;92.00;;;;;;10535960;28;20082;-22
2023/11/28 08:47:49;;;;;;;4.82;1.00;;;16.60;92.00;;;;;;10534152;28;20861;-22
2023/11/28 08:52:51;;;;;;;1.67;0.60;;;16.60;91.90;;;;;;10533785;28;20106;-23
2023/11/28 08:57:52;;;;;;;1.90;0.90;;;16.60;91.90;;;;;;10534593;28;20073;-23
2023/11/28 09:02:56;;;;;;;2.80;0.80;;;16.60;91.80;;;;;;10544181;27;20069;-22
2023/11/28 09:07:58;;;;;;;2.70;0.65;;;16.60;91.80;;;;;;10541870;27;20075;-22
2023/11/28 09:12:59;;;;;;;2.07;1.07;;;16.60;91.80;;;;;;10543066;27;20170;-23
2023/11/28 09:18:03;;;;;;;1.50;0.80;;;16.60;91.70;;;;;;10546875;27;20055;-22
2023/11/28 09:23:05;;;;;;;1.65;1.05;;;16.60;91.70;;;;;;10544239;28;20043;-22
2023/11/28 09:28:07;;;;;;;;;;;16.50;91.60;;;;;;10546223;28;20546;-29
2023/11/28 09:33:10;;;;;;;4.70;1.10;;;16.50;91.60;;;;;;10544762;28;20762;-23
2023/11/28 09:38:12;;;;;;;4.88;1.42;;;16.50;91.60;;;;;;10544412;27;20047;-22
2023/11/28 09:43:15;;;;;;;8.20;0.83;;;16.50;91.40;;;;;;10541685;27;20728;-22
2023/11/28 09:48:18;;;;;;;3.20;0.77;;;16.60;91.40;;;;;;10542212;28;20051;-22
2023/11/28 09:53:23;;;;;;;2.80;1.10;;;16.60;91.30;;;;;;10538880;27;20070;-23
2023/11/28 09:58:25;;;;;;;2.70;0.88;;;16.60;91.20;;;;;;10541720;27;20051;-22
2023/11/28 10:03:28;;;;;;;1.00;0.83;;;16.50;91.20;;;;;;10539538;28;20047;-23
2023/11/28 10:08:33;;;;;;;4.07;1.25;;;16.60;91.20;;;;;;10539217;27;20051;-23
2023/11/28 10:13:35;;;;;;;7.00;1.42;;;16.50;90.60;;;;;;10540789;28;20060;-22
2023/11/28 10:18:38;;;;;;;4.10;1.27;;;16.60;91.00;;;;;;10540618;28;20062;-23
2023/11/28 10:23:45;;;;;;;5.35;1.27;;;16.50;90.90;;;;;;10538625;28;20047;-22
2023/11/28 10:28:49;;;;;;;2.85;1.30;;;16.50;90.90;;;;;;10540282;28;20429;-23
2023/11/28 10:33:53;;;;;;;1.95;1.20;;;16.50;90.80;;;;;;10539686;28;20170;-22
2023/11/28 10:38:55;;;;;;;5.85;1.33;;;16.50;90.90;;;;;;10534953;28;20067;-22
2023/11/28 10:43:58;;;;;;;3.53;1.10;;;16.50;90.70;;;;;;10541815;28;20110;-23
2023/11/28 10:49:01;;;;;;;3.88;1.40;;;16.50;90.70;;;;;;10539443;28;20066;-23
2023/11/28 10:54:07;;;;;;;6.03;1.48;;;16.50;90.60;;;;;;10541213;28;20096;-24
2023/11/28 10:59:18;;;;;;;3.05;1.48;;;16.50;90.70;;;;;;10539259;28;20054;-23
2023/11/28 11:04:21;;;;;;;2.20;1.52;;;16.30;90.80;;;;;;10541642;28;20047;-24
2023/11/28 11:09:25;;;;;;;3.45;1.58;;;16.20;91.10;;;;;;10538282;28;20086;-23
2023/11/28 11:14:37;;;;;;;2.45;1.67;;;14.40;69.70;;;;;;10540525;28;20056;-24
2023/11/28 11:19:43;;;;;;;2.87;1.40;;;14.10;96.30;;;;;;10538511;28;20039;-23
2023/11/28 11:24:45;;;;;;;4.22;1.45;;;15.80;92.50;;;;;;10538311;27;20052;-22
2023/11/28 11:29:48;;;;;;;2.70;1.40;;;15.50;91.60;;;;;;10537556;28;20888;-22
2023/11/28 11:34:54;;;;;;;4.80;1.33;;;16.10;91.20;;;;;;10538290;27;20795;-22
2023/11/28 11:39:57;;;;;;;3.17;1.50;;;16.10;90.80;;;;;;10536981;28;20050;-22
2023/11/28 11:45:02;;;;;;;3.72;1.98;;;16.20;90.60;;;;;;10538420;28;20113;-23
2023/11/28 11:50:07;;;;;;;9.07;3.40;;;16.20;90.40;;;;;;10538699;27;20055;-24
2023/11/28 11:55:12;;;;;;;5.65;2.50;;;16.00;78.20;;;;;;10535898;28;20096;-24
2023/11/28 12:00:15;;;;;;;7.45;2.97;;;16.00;90.60;;;;;;10534986;27;20056;-23
2023/11/28 12:05:18;;;;;;;6.97;2.95;;;16.20;90.00;;;;;;10535695;28;20422;-23
2023/11/28 12:10:20;;;;;;;10.30;3.03;;;16.20;90.00;;;;;;10538759;28;20047;-23
2023/11/28 12:15:22;;;;;;;5.10;2.57;;;16.30;89.90;;;;;;10536132;28;20527;-23
2023/11/28 12:20:25;;;;;;;8.50;3.03;;;16.30;89.50;;;;;;10533944;28;20077;-21
2023/11/28 12:25:31;;;;;;;11.90;2.30;;;16.10;89.50;;;;;;10531539;28;20050;-21
2023/11/28 12:30:34;;;;;;;5.05;2.33;;;15.60;91.20;;;;;;10537145;28;20085;-23
2023/11/28 12:35:37;;;;;;;4.28;2.40;;;15.10;65.70;;;;;;10543677;27;20047;-22
2023/11/28 12:40:39;;;;;;;3.10;1.83;;;13.60;91.20;;;;;;10544831;27;20490;-22
2023/11/28 12:45:42;;;;;;;3.83;1.63;;;13.50;93.10;;;;;;10544321;28;20058;-23
2023/11/28 12:50:45;;;;;;;4.00;1.30;;;13.50;84.30;;;;;;10542976;27;20055;-22
2023/11/28 12:55:47;;;;;;;3.95;1.83;;;14.80;91.90;;;;;;10540765;27;20050;-22
2023/11/28 13:00:49;;;;;;;5.82;1.67;;;13.60;94.70;;;;;;10542589;27;20930;-23
2023/11/28 13:05:53;;;;;;;4.20;1.87;;;13.30;84.60;;;;;;10544052;28;20058;-22
2023/11/28 13:10:55;;;;;;;4.35;1.42;;;14.70;93.50;;;;;;10543585;27;20485;-23
2023/11/28 13:15:57;;;;;;;2.80;1.20;;;13.70;83.20;;;;;;10543227;27;20052;-23
2023/11/28 13:21:01;;;;;;;2.53;1.20;;;15.20;92.00;;;;;;10539329;28;20051;-23
2023/11/28 13:26:04;;;;;;;2.78;1.27;;;14.90;91.30;;;;;;10546503;27;20100;-23
2023/11/28 13:31:07;;;;;;;2.92;1.20;;;14.20;94.40;;;;;;10540287;27;20047;-23
2023/11/28 13:36:11;;;;;;;1.63;1.33;;;13.10;90.60;;;;;;10542787;27;20371;-22
2023/11/28 13:41:14;;;;;;;4.20;1.63;;;11.60;90.40;;;;;;10541677;27;20043;-24
2023/11/28 13:46:15;;;;;;;2.40;1.20;;;11.10;99.90;;;;;;10539327;27;20047;-22
2023/11/28 13:51:20;;;;;;;3.47;1.73;;;13.10;95.80;;;;;;10538403;28;20427;-22
2023/11/28 13:56:23;;;;;;;2.63;1.52;;;11.20;81.00;;;;;;10539717;27;20051;-23
2023/11/28 14:01:25;;;;;;;3.05;1.23;;;14.50;96.40;;;;;;10542666;27;20079;-22
2023/11/28 14:06:28;;;;;;;1.50;0.90;;;14.80;89.30;;;;;;10542216;27;20120;-23
2023/11/28 14:11:30;;;;;;;1.50;1.05;;;15.40;92.60;;;;;;10534708;27;20079;-22
2023/11/28 14:16:32;;;;;;;1.63;0.70;;;15.10;93.20;;;;;;10539053;28;20055;-23
2023/11/28 14:21:36;;;;;;;1.93;0.90;;;15.40;88.40;;;;;;10541758;27;20044;-27
2023/11/28 14:26:37;;;;;;;1.65;0.90;;;15.10;70.40;;;;;;10540812;27;20044;-22
2023/11/28 14:31:40;;;;;;;1.77;0.80;;;14.00;92.80;;;;;;10542294;28;20288;-22
2023/11/28 14:36:43;;;;;;;2.65;1.05;;;15.20;92.80;;;;;;10547897;28;20059;-22
2023/11/28 14:41:46;;;;;;;1.58;0.95;;;14.70;92.20;;;;;;10545568;28;20054;-22
2023/11/28 14:46:47;;;;;;;2.25;1.00;;;15.50;80.90;;;;;;10544252;28;20043;-22
2023/11/28 14:51:51;;;;;;;2.60;1.50;;;15.60;93.00;;;;;;10544192;28;20728;-23
2023/11/28 14:56:53;;;;;;;2.15;1.20;;;15.20;93.00;;;;;;10544070;28;20545;-26
2023/11/28 15:01:55;;;;;;;3.25;1.25;;;15.70;92.20;;;;;;10543600;27;20138;-21
2023/11/28 15:06:58;;;;;;;5.03;1.83;;;16.10;91.80;;;;;;10543818;27;20135;-22
2023/11/28 15:12:03;;;;;;;2.92;1.63;;;16.30;91.40;;;;;;10539041;28;20067;-22
2023/11/28 15:17:05;;;;;;;2.97;1.90;;;15.70;78.00;;;;;;10540997;28;20035;-23
2023/11/28 15:22:11;;;;;;;4.20;1.98;;;15.10;92.90;;;;;;10540246;28;20098;-23
2023/11/28 15:27:13;;;;;;;6.28;2.33;;;12.10;81.30;;;;;;10537871;28;20039;-22
2023/11/28 15:32:15;;;;;;;4.13;1.80;;;9.70;89.40;;;;;;10538207;27;20055;-22
2023/11/28 15:37:18;;;;;;;3.93;2.37;;;13.70;94.10;;;;;;10533881;27;20052;-24
2023/11/28 15:42:20;;;;;;;8.73;2.33;;;14.20;88.00;;;;;;10535010;27;20051;-23
2023/11/28 15:47:23;;;;;;;5.07;2.30;;;14.80;95.60;;;;;;10531860;28;21248;-22
2023/11/28 15:52:26;;;;;;;2.63;1.65;;;15.90;93.10;;;;;;10535035;27;20058;-23
2023/11/28 15:57:29;;;;;;;4.50;2.30;;;13.80;95.80;;;;;;10522417;28;20089;-22
2023/11/28 16:02:31;;;;;;;4.90;2.40;;;12.90;83.10;;;;;;10530831;28;20134;-23
2023/11/28 16:07:35;;;;;;;7.18;2.30;;;14.00;99.00;;;;;;10531486;28;20056;-22
2023/11/28 16:12:36;;;;;;;5.00;1.95;;;15.00;96.00;;;;;;10530625;28;20141;-23
2023/11/28 16:17:40;;;;;;;4.50;2.13;;;14.40;96.80;;;;;;10536480;28;20070;-25
2023/11/28 16:22:43;;;;;;;2.28;1.45;;;14.30;94.50;;;;;;10533912;28;20471;-22
2023/11/28 16:27:45;;;;;;;1.77;1.10;;;13.60;97.60;;;;;;10534970;28;20047;-23
2023/11/28 16:32:46;;;;;;;2.63;1.10;;;12.70;96.80;;;;;;10530523;28;20051;-23
2023/11/28 16:37:50;;;;;;;1.70;1.03;;;13.80;96.50;;;;;;10533272;28;20040;-23
2023/11/28 16:42:54;;;;;;;1.75;1.00;;;14.50;90.80;;;;;;10533883;28;20055;-24
2023/11/28 16:47:56;;;;;;;2.08;1.10;;;11.90;97.50;;;;;;10531571;28;20040;-22
2023/11/28 16:52:59;;;;;;;1.87;0.90;;;13.50;99.00;;;;;;10536159;28;20047;-23
2023/11/28 16:58:01;;;;;;;2.08;1.10;;;10.00;99.90;;;;;;10535089;28;20047;-22
2023/11/28 17:03:03;;;;;;;3.17;1.02;;;12.50;97.00;;;;;;10534992;28;20047;-22
2023/11/28 17:08:06;;;;;;;1.50;1.08;;;13.00;93.90;;;;;;10532600;28;20048;-23
2023/11/28 17:13:09;;;;;;;0.90;0.52;;;11.50;99.90;;;;;;10530846;28;20055;-22
2023/11/28 17:18:10;;;;;;;1.30;0.73;;;11.40;99.90;;;;;;10532475;28;20052;-22
2023/11/28 17:23:14;;;;;;;1.30;0.80;;;9.70;99.90;;;;;;10539781;27;20414;-23
2023/11/28 17:28:16;;;;;;;1.58;1.02;;;8.80;99.90;;;;;;10528975;27;20043;-22
2023/11/28 17:33:18;;;;;;;;;;;9.00;99.90;;;;;;10531313;28;20146;-23
2023/11/28 17:38:21;;;;;;;1.48;1.00;;;13.10;99.90;;;;;;10533047;27;19923;-21
2023/11/28 17:43:23;;;;;;;2.83;1.02;;;12.50;99.90;;;;;;10533875;28;20059;-23
2023/11/28 17:48:25;;;;;;;1.23;0.80;;;12.60;99.90;;;;;;10536067;27;20086;-23
2023/11/28 17:53:28;;;;;;;1.43;0.93;;;12.50;99.00;;;;;;10535842;27;20050;-23
2023/11/28 17:58:30;;;;;;;1.15;0.70;;;12.10;99.30;;;;;;10533505;27;20170;-22
2023/11/28 18:03:32;;;;;;;2.33;1.00;;;13.10;96.50;;;;;;10533202;27;20051;-23
2023/11/28 18:08:36;;;;;;;1.23;0.80;;;13.40;93.70;;;;;;10527837;27;20067;-25
2023/11/28 18:13:39;;;;;;;1.65;1.13;;;8.10;99.90;;;;;;10526173;27;20055;-27
2023/11/28 18:18:41;;;;;;;3.08;0.93;;;8.20;99.90;;;;;;10534077;27;20056;-22
2023/11/28 18:23:44;;;;;;;1.67;0.73;;;8.60;99.90;;;;;;10537638;27;20079;-22
2023/11/28 18:28:46;;;;;;;2.67;0.85;;;8.10;99.90;;;;;;10529558;27;20120;-22
2023/11/28 18:33:48;;;;;;;1.67;0.77;;;8.10;99.90;;;;;;10533812;27;20050;-22
2023/11/28 18:38:51;;;;;;;1.03;0.40;;;8.50;99.90;;;;;;10535345;27;20166;-22
2023/11/28 18:43:53;;;;;;;1.58;0.77;;;7.40;99.90;;;;;;10535037;28;20051;-23
2023/11/28 18:48:55;;;;;;;2.40;0.63;;;7.80;99.90;;;;;;10536928;28;20854;-22
2023/11/28 18:53:58;;;;;;;1.13;0.63;;;8.10;99.90;;;;;;10536452;28;20970;-21
2023/11/28 18:59:00;;;;;;;0.88;0.52;;;8.00;99.90;;;;;;10540091;27;20063;-21
2023/11/28 19:04:03;;;;;;;0.67;0.30;;;7.50;99.90;;;;;;10526363;27;20790;-21
2023/11/28 19:09:07;;;;;;;0.80;0.50;;;9.40;99.90;;;;;;10531666;27;20138;-23
2023/11/28 19:14:08;;;;;;;0.75;0.40;;;11.50;99.90;;;;;;10533651;28;20100;-23
2023/11/28 19:19:10;;;;;;;2.20;0.50;;;10.00;99.90;;;;;;10535979;28;20094;-23
2023/11/28 19:24:14;;;;;;;0.73;0.50;;;9.10;99.90;;;;;;10532256;27;20783;-23
2023/11/28 19:29:16;;;;;;;0.90;0.52;;;8.30;99.90;;;;;;10527502;28;20067;-23
2023/11/28 19:34:19;;;;;;;4.70;0.80;;;8.00;99.90;;;;;;10531096;28;20044;-23
2023/11/28 19:39:22;;;;;;;0.80;0.60;;;9.50;99.90;;;;;;10528820;28;20059;-23
2023/11/28 19:44:24;;;;;;;1.58;0.60;;;10.00;99.90;;;;;;10528365;28;20119;-23
2023/11/28 19:49:26;;;;;;;3.33;0.50;;;11.50;99.90;;;;;;10530586;28;20047;-23
2023/11/28 19:54:29;;;;;;;1.30;0.60;;;13.30;99.90;;;;;;10530633;28;20573;-24
2023/11/28 19:59:31;;;;;;;3.75;0.60;;;15.30;95.50;;;;;;10525891;28;20101;-24
2023/11/28 20:04:33;;;;;;;1.33;0.80;;;14.80;90.50;;;;;;10527572;28;20054;-24
2023/11/28 20:09:36;;;;;;;1.70;0.57;;;11.20;99.30;;;;;;10525252;28;20086;-23
2023/11/28 20:14:38;;;;;;;2.13;0.60;;;14.20;98.60;;;;;;10524849;28;20052;-23
2023/11/28 20:19:40;;;;;;;1.60;0.83;;;9.60;99.90;;;;;;10523445;28;20087;-23
2023/11/28 20:24:43;;;;;;;1.03;0.63;;;8.50;99.90;;;;;;10527239;28;20133;-22
2023/11/28 20:29:45;;;;;;;2.13;0.98;;;9.40;99.90;;;;;;10528166;28;20058;-23
2023/11/28 20:34:47;;;;;;;1.13;0.50;;;8.20;99.90;;;;;;10528776;28;20225;-23
2023/11/28 20:39:50;;;;;;;1.57;0.70;;;8.10;99.50;;;;;;10526560;28;20210;-22
2023/11/28 20:44:52;;;;;;;3.85;0.65;;;8.10;99.30;;;;;;10531704;28;20913;-21
2023/11/28 20:49:54;;;;;;;3.13;0.70;;;8.30;99.90;;;;;;10522883;28;20062;-23
2023/11/28 20:54:57;;;;;;;1.77;0.87;;;7.60;99.90;;;;;;10531140;28;20497;-23
2023/11/28 21:00:00;;;;;;;1.75;0.85;;;8.50;99.90;;;;;;10534276;27;20090;-23
2023/11/28 21:05:01;;;;;;;2.72;0.80;;;9.10;99.90;;;;;;10535684;28;20897;-24
2023/11/28 21:10:06;;;;;;;2.43;0.90;;;8.40;99.90;;;;;;10537937;27;20089;-23
2023/11/28 21:15:09;;;;;;;2.30;0.90;;;8.40;99.90;;;;;;10537728;27;20124;-22
2023/11/28 21:20:11;;;;;;;2.88;1.20;;;7.60;99.90;;;;;;10539375;27;20051;-22
2023/11/28 21:25:15;;;;;;;4.43;1.00;;;8.00;99.90;;;;;;10537785;27;20804;-24
2023/11/28 21:30:17;;;;;;;3.10;0.95;;;7.70;99.90;;;;;;10539199;27;20055;-22
2023/11/28 21:35:19;;;;;;;;;;;7.90;99.90;;;;;;10539600;27;20047;-23
2023/11/28 21:40:23;;;;;;;1.92;0.82;;;8.00;99.90;;;;;;10537109;27;20408;-23
2023/11/28 21:45:25;;;;;;;3.22;0.90;;;7.90;99.90;;;;;;10540824;27;20456;-24
2023/11/28 21:50:31;;;;;;;3.43;1.00;;;9.40;99.90;;;;;;10541408;28;20055;-23
2023/11/28 21:55:35;;;;;;;2.95;1.05;;;8.50;99.90;;;;;;10541294;27;20146;-22
2023/11/28 22:00:37;;;;;;;3.92;0.95;;;10.20;99.90;;;;;;10539968;27;20505;-23
2023/11/28 22:05:39;;;;;;;4.87;1.00;;;9.10;99.90;;;;;;10537421;27;20047;-25
2023/11/28 22:10:42;;;;;;;4.60;1.23;;;11.40;99.90;;;;;;10541812;27;20043;-25
2023/11/28 22:15:45;;;;;;;2.60;1.00;;;9.60;98.60;;;;;;10541214;28;20047;-23
2023/11/28 22:20:46;;;;;;;3.40;1.27;;;8.40;99.90;;;;;;10540837;27;20055;-23
2023/11/28 22:25:50;;;;;;;5.07;1.50;;;8.40;99.90;;;;;;10542514;27;20100;-23
2023/11/28 22:30:51;;;;;;;3.75;1.45;;;7.40;99.90;;;;;;10542698;28;20056;-22
2023/11/28 22:35:53;;;;;;;5.13;1.13;;;7.80;99.90;;;;;;10541354;28;20047;-23
2023/11/28 22:40:57;;;;;;;2.67;1.17;;;9.90;99.90;;;;;;10541455;28;20789;-23
2023/11/28 22:45:59;;;;;;;3.47;1.20;;;9.00;99.90;;;;;;10532323;27;20056;-23
2023/11/28 22:51:00;;;;;;;2.43;1.17;;;9.80;99.90;;;;;;10537815;27;20177;-23
2023/11/28 22:56:09;;;;;;;2.13;1.33;;;10.70;99.90;;;;;;10536039;28;20105;-22
2023/11/28 23:01:11;;;;;;;2.33;1.25;;;9.50;99.90;;;;;;10535859;27;20507;-22
2023/11/28 23:06:13;;;;;;;2.63;1.33;;;10.20;99.90;;;;;;10537569;28;20050;-24
2023/11/28 23:11:16;;;;;;;3.97;1.47;;;9.20;99.90;;;;;;10540997;28;20064;-23
2023/11/28 23:16:18;;;;;;;2.45;1.27;;;9.80;99.90;;;;;;10535014;28;20131;-24
2023/11/28 23:21:20;;;;;;;4.00;1.30;;;8.30;99.90;;;;;;10536449;28;20529;-21
2023/11/28 23:26:23;;;;;;;2.23;1.20;;;8.80;99.90;;;;;;10539166;28;20055;-22
2023/11/28 23:31:25;;;;;;;3.97;1.33;;;8.00;99.90;;;;;;10540449;28;20185;-23
2023/11/28 23:36:27;;;;;;;5.93;1.40;;;8.70;97.60;;;;;;10541942;28;20826;-23
2023/11/28 23:41:31;;;;;;;2.70;0.97;;;8.40;99.90;;;;;;10541209;28;20063;-22
2023/11/28 23:46:33;;;;;;;2.90;1.17;;;8.20;98.50;;;;;;10540727;28;20047;-22
2023/11/28 23:51:35;;;;;;;3.57;1.30;;;8.50;99.90;;;;;;10540391;28;20280;-21
2023/11/28 23:56:38;;;;;;;3.10;1.90;;;8.30;99.90;;;;;;10539827;28;20085;-24
